sensor_id;sensor_type;location;lat;lon;timestamp;temperature;humidity
78054;DHT22;67726;45.636;11.752;2023-02-28T00:00:21;5.30;43.70
78054;DHT22;67726;45.636;11.752;2023-02-28T00:02:47;5.00;43.20
78054;DHT22;67726;45.636;11.752;2023-02-28T00:05:15;5.10;43.70
78054;DHT22;67726;45.636;11.752;2023-02-28T00:07:41;5.10;43.50
78054;DHT22;67726;45.636;11.752;2023-02-28T00:10:12;5.20;43.00
78054;DHT22;67726;45.636;11.752;2023-02-28T00:12:39;5.10;42.80
78054;DHT22;67726;45.636;11.752;2023-02-28T00:15:10;5.20;43.40
78054;DHT22;67726;45.636;11.752;2023-02-28T00:17:37;5.40;43.10
78054;DHT22;67726;45.636;11.752;2023-02-28T00:20:04;5.20;43.00
78054;DHT22;67726;45.636;11.752;2023-02-28T00:22:33;5.30;43.20
78054;DHT22;67726;45.636;11.752;2023-02-28T00:24:59;5.30;43.10
78054;DHT22;67726;45.636;11.752;2023-02-28T00:27:25;5.30;43.10
78054;DHT22;67726;45.636;11.752;2023-02-28T00:29:50;5.10;43.30
78054;DHT22;67726;45.636;11.752;2023-02-28T00:32:16;5.20;43.30
78054;DHT22;67726;45.636;11.752;2023-02-28T00:34:43;5.20;43.70
78054;DHT22;67726;45.636;11.752;2023-02-28T00:37:10;5.10;43.60
78054;DHT22;67726;45.636;11.752;2023-02-28T00:39:37;5.00;43.60
78054;DHT22;67726;45.636;11.752;2023-02-28T00:42:03;4.90;43.40
78054;DHT22;67726;45.636;11.752;2023-02-28T00:44:29;4.90;43.60
78054;DHT22;67726;45.636;11.752;2023-02-28T00:46:55;4.90;43.70
78054;DHT22;67726;45.636;11.752;2023-02-28T00:49:22;5.00;44.00
78054;DHT22;67726;45.636;11.752;2023-02-28T00:51:48;4.80;43.90
78054;DHT22;67726;45.636;11.752;2023-02-28T00:54:13;4.90;44.10
78054;DHT22;67726;45.636;11.752;2023-02-28T00:56:39;5.00;43.60
78054;DHT22;67726;45.636;11.752;2023-02-28T00:59:05;4.80;43.70
78054;DHT22;67726;45.636;11.752;2023-02-28T01:01:32;4.90;43.50
78054;DHT22;67726;45.636;11.752;2023-02-28T01:03:57;4.90;43.90
78054;DHT22;67726;45.636;11.752;2023-02-28T01:06:23;4.70;43.60
78054;DHT22;67726;45.636;11.752;2023-02-28T01:08:49;4.90;43.70
78054;DHT22;67726;45.636;11.752;2023-02-28T01:11:16;4.70;43.80
78054;DHT22;67726;45.636;11.752;2023-02-28T01:13:42;4.70;44.10
78054;DHT22;67726;45.636;11.752;2023-02-28T01:16:09;4.50;44.40
78054;DHT22;67726;45.636;11.752;2023-02-28T01:18:35;4.60;44.60
78054;DHT22;67726;45.636;11.752;2023-02-28T01:21:09;4.70;44.40
78054;DHT22;67726;45.636;11.752;2023-02-28T01:23:35;4.70;44.70
78054;DHT22;67726;45.636;11.752;2023-02-28T01:26:09;4.60;44.30
78054;DHT22;67726;45.636;11.752;2023-02-28T01:28:35;4.60;44.40
78054;DHT22;67726;45.636;11.752;2023-02-28T01:31:00;4.60;45.00
78054;DHT22;67726;45.636;11.752;2023-02-28T01:33:27;4.60;45.00
78054;DHT22;67726;45.636;11.752;2023-02-28T01:36:00;4.60;44.70
78054;DHT22;67726;45.636;11.752;2023-02-28T01:38:26;4.60;44.60
78054;DHT22;67726;45.636;11.752;2023-02-28T01:40:52;4.70;44.50
78054;DHT22;67726;45.636;11.752;2023-02-28T01:43:27;4.70;44.70
78054;DHT22;67726;45.636;11.752;2023-02-28T01:45:54;4.80;45.10
78054;DHT22;67726;45.636;11.752;2023-02-28T01:48:28;4.50;44.70
78054;DHT22;67726;45.636;11.752;2023-02-28T01:51:01;4.50;44.60
78054;DHT22;67726;45.636;11.752;2023-02-28T01:53:36;4.70;44.70
78054;DHT22;67726;45.636;11.752;2023-02-28T01:56:05;4.70;44.70
78054;DHT22;67726;45.636;11.752;2023-02-28T01:58:32;4.70;44.80
78054;DHT22;67726;45.636;11.752;2023-02-28T02:00:58;4.70;44.50
78054;DHT22;67726;45.636;11.752;2023-02-28T02:03:25;4.70;44.60
78054;DHT22;67726;45.636;11.752;2023-02-28T02:05:51;4.70;44.20
78054;DHT22;67726;45.636;11.752;2023-02-28T02:08:23;4.80;44.00
78054;DHT22;67726;45.636;11.752;2023-02-28T02:10:51;4.70;44.10
78054;DHT22;67726;45.636;11.752;2023-02-28T02:13:22;5.10;44.60
78054;DHT22;67726;45.636;11.752;2023-02-28T02:18:54;4.90;44.30
78054;DHT22;67726;45.636;11.752;2023-02-28T02:40:19;4.60;44.50
78054;DHT22;67726;45.636;11.752;2023-02-28T02:43:38;4.80;44.10
78054;DHT22;67726;45.636;11.752;2023-02-28T02:45:54;4.90;43.90
78054;DHT22;67726;45.636;11.752;2023-02-28T02:48:28;4.80;44.50
78054;DHT22;67726;45.636;11.752;2023-02-28T02:50:58;4.90;44.40
78054;DHT22;67726;45.636;11.752;2023-02-28T02:53:32;4.90;44.40
78054;DHT22;67726;45.636;11.752;2023-02-28T02:56:02;4.90;44.30
78054;DHT22;67726;45.636;11.752;2023-02-28T02:58:32;5.00;44.50
78054;DHT22;67726;45.636;11.752;2023-02-28T03:01:01;4.90;44.20
78054;DHT22;67726;45.636;11.752;2023-02-28T03:03:29;5.10;44.00
78054;DHT22;67726;45.636;11.752;2023-02-28T03:05:57;5.00;43.80
78054;DHT22;67726;45.636;11.752;2023-02-28T03:08:23;5.10;44.00
78054;DHT22;67726;45.636;11.752;2023-02-28T03:11:00;4.90;44.00
78054;DHT22;67726;45.636;11.752;2023-02-28T03:18:47;5.10;43.90
78054;DHT22;67726;45.636;11.752;2023-02-28T03:24:11;5.20;43.80
78054;DHT22;67726;45.636;11.752;2023-02-28T03:26:42;5.20;43.10
78054;DHT22;67726;45.636;11.752;2023-02-28T03:29:33;5.20;42.80
78054;DHT22;67726;45.636;11.752;2023-02-28T03:32:11;5.20;43.10
78054;DHT22;67726;45.636;11.752;2023-02-28T03:34:55;5.20;43.30
78054;DHT22;67726;45.636;11.752;2023-02-28T03:37:23;5.40;43.00
78054;DHT22;67726;45.636;11.752;2023-02-28T03:39:57;5.40;42.90
78054;DHT22;67726;45.636;11.752;2023-02-28T03:42:29;5.50;43.00
78054;DHT22;67726;45.636;11.752;2023-02-28T03:44:59;5.50;43.40
78054;DHT22;67726;45.636;11.752;2023-02-28T03:47:39;5.50;42.90
78054;DHT22;67726;45.636;11.752;2023-02-28T03:50:29;5.60;42.80
78054;DHT22;67726;45.636;11.752;2023-02-28T03:53:02;5.60;42.60
78054;DHT22;67726;45.636;11.752;2023-02-28T03:55:34;5.50;43.10
78054;DHT22;67726;45.636;11.752;2023-02-28T03:58:23;5.50;42.70
78054;DHT22;67726;45.636;11.752;2023-02-28T04:00:57;5.60;42.90
78054;DHT22;67726;45.636;11.752;2023-02-28T04:03:24;5.50;42.90
78054;DHT22;67726;45.636;11.752;2023-02-28T04:05:52;5.40;42.40
78054;DHT22;67726;45.636;11.752;2023-02-28T04:08:18;5.60;42.40
78054;DHT22;67726;45.636;11.752;2023-02-28T04:10:48;5.50;42.70
78054;DHT22;67726;45.636;11.752;2023-02-28T04:13:16;5.50;42.90
78054;DHT22;67726;45.636;11.752;2023-02-28T04:15:41;5.50;42.40
78054;DHT22;67726;45.636;11.752;2023-02-28T04:18:08;5.60;42.50
78054;DHT22;67726;45.636;11.752;2023-02-28T04:20:33;5.50;42.40
78054;DHT22;67726;45.636;11.752;2023-02-28T04:22:59;5.50;42.40
78054;DHT22;67726;45.636;11.752;2023-02-28T04:25:24;5.50;42.50
78054;DHT22;67726;45.636;11.752;2023-02-28T04:27:50;5.70;42.10
78054;DHT22;67726;45.636;11.752;2023-02-28T04:30:16;5.50;42.10
78054;DHT22;67726;45.636;11.752;2023-02-28T04:32:42;5.50;42.20
78054;DHT22;67726;45.636;11.752;2023-02-28T04:35:08;5.60;42.30
78054;DHT22;67726;45.636;11.752;2023-02-28T04:37:33;5.60;42.40
78054;DHT22;67726;45.636;11.752;2023-02-28T04:40:00;5.50;42.30
78054;DHT22;67726;45.636;11.752;2023-02-28T04:42:26;5.60;42.90
78054;DHT22;67726;45.636;11.752;2023-02-28T04:44:52;5.30;43.00
78054;DHT22;67726;45.636;11.752;2023-02-28T04:47:17;5.50;42.80
78054;DHT22;67726;45.636;11.752;2023-02-28T04:49:43;5.50;42.90
78054;DHT22;67726;45.636;11.752;2023-02-28T04:52:09;5.50;43.10
78054;DHT22;67726;45.636;11.752;2023-02-28T04:54:35;5.30;43.20
78054;DHT22;67726;45.636;11.752;2023-02-28T04:57:01;5.20;43.00
78054;DHT22;67726;45.636;11.752;2023-02-28T04:59:27;5.40;43.40
78054;DHT22;67726;45.636;11.752;2023-02-28T05:01:52;5.20;43.70
78054;DHT22;67726;45.636;11.752;2023-02-28T05:04:18;5.30;43.50
78054;DHT22;67726;45.636;11.752;2023-02-28T05:06:44;5.40;43.80
78054;DHT22;67726;45.636;11.752;2023-02-28T05:09:10;5.20;44.20
78054;DHT22;67726;45.636;11.752;2023-02-28T05:11:38;5.30;43.50
78054;DHT22;67726;45.636;11.752;2023-02-28T05:14:08;5.10;44.00
78054;DHT22;67726;45.636;11.752;2023-02-28T05:16:35;5.10;44.50
78054;DHT22;67726;45.636;11.752;2023-02-28T05:19:00;5.10;44.30
78054;DHT22;67726;45.636;11.752;2023-02-28T05:21:34;4.90;44.30
78054;DHT22;67726;45.636;11.752;2023-02-28T05:24:06;4.90;44.50
78054;DHT22;67726;45.636;11.752;2023-02-28T05:26:35;4.60;45.20
78054;DHT22;67726;45.636;11.752;2023-02-28T05:29:01;4.90;45.10
78054;DHT22;67726;45.636;11.752;2023-02-28T05:31:27;4.80;45.60
78054;DHT22;67726;45.636;11.752;2023-02-28T05:33:53;4.90;44.90
78054;DHT22;67726;45.636;11.752;2023-02-28T05:36:19;4.90;44.80
78054;DHT22;67726;45.636;11.752;2023-02-28T05:38:49;4.70;45.60
78054;DHT22;67726;45.636;11.752;2023-02-28T05:41:16;4.90;45.10
78054;DHT22;67726;45.636;11.752;2023-02-28T05:43:42;4.90;45.20
78054;DHT22;67726;45.636;11.752;2023-02-28T05:46:09;4.70;45.60
78054;DHT22;67726;45.636;11.752;2023-02-28T05:48:36;4.60;45.50
78054;DHT22;67726;45.636;11.752;2023-02-28T05:51:03;4.90;45.50
78054;DHT22;67726;45.636;11.752;2023-02-28T05:53:29;4.60;46.00
78054;DHT22;67726;45.636;11.752;2023-02-28T05:55:55;4.90;45.50
78054;DHT22;67726;45.636;11.752;2023-02-28T05:58:21;4.80;45.60
78054;DHT22;67726;45.636;11.752;2023-02-28T06:00:47;4.80;45.40
78054;DHT22;67726;45.636;11.752;2023-02-28T06:03:13;4.70;45.40
78054;DHT22;67726;45.636;11.752;2023-02-28T06:05:39;4.70;45.50
78054;DHT22;67726;45.636;11.752;2023-02-28T06:08:05;4.60;45.40
78054;DHT22;67726;45.636;11.752;2023-02-28T06:10:33;4.80;45.30
78054;DHT22;67726;45.636;11.752;2023-02-28T06:13:03;4.90;45.30
78054;DHT22;67726;45.636;11.752;2023-02-28T06:15:29;4.90;45.40
78054;DHT22;67726;45.636;11.752;2023-02-28T06:17:55;5.00;45.20
78054;DHT22;67726;45.636;11.752;2023-02-28T06:20:24;5.10;44.90
78054;DHT22;67726;45.636;11.752;2023-02-28T06:22:51;5.00;44.70
78054;DHT22;67726;45.636;11.752;2023-02-28T06:25:17;5.30;45.00
78054;DHT22;67726;45.636;11.752;2023-02-28T06:27:43;5.30;44.80
78054;DHT22;67726;45.636;11.752;2023-02-28T06:30:10;5.20;44.80
78054;DHT22;67726;45.636;11.752;2023-02-28T06:32:36;5.40;44.90
78054;DHT22;67726;45.636;11.752;2023-02-28T06:35:02;5.50;44.70
78054;DHT22;67726;45.636;11.752;2023-02-28T06:37:28;5.60;45.00
78054;DHT22;67726;45.636;11.752;2023-02-28T06:39:55;5.80;44.70
78054;DHT22;67726;45.636;11.752;2023-02-28T06:42:22;5.90;44.50
78054;DHT22;67726;45.636;11.752;2023-02-28T06:45:10;5.80;45.00
78054;DHT22;67726;45.636;11.752;2023-02-28T06:59:02;0.20;0.20
78054;DHT22;67726;45.636;11.752;2023-02-28T07:01:28;0.20;0.20
78054;DHT22;67726;45.636;11.752;2023-02-28T07:03:54;0.20;0.20
78054;DHT22;67726;45.636;11.752;2023-02-28T07:06:23;0.20;0.20
78054;DHT22;67726;45.636;11.752;2023-02-28T07:08:50;0.20;0.20
78054;DHT22;67726;45.636;11.752;2023-02-28T07:11:17;0.20;0.20
78054;DHT22;67726;45.636;11.752;2023-02-28T07:13:43;0.20;0.20
78054;DHT22;67726;45.636;11.752;2023-02-28T07:16:10;0.20;0.20
78054;DHT22;67726;45.636;11.752;2023-02-28T07:18:37;0.20;0.20
78054;DHT22;67726;45.636;11.752;2023-02-28T07:21:08;0.20;0.20
78054;DHT22;67726;45.636;11.752;2023-02-28T07:23:35;0.20;0.20
78054;DHT22;67726;45.636;11.752;2023-02-28T07:26:01;0.20;0.20
78054;DHT22;67726;45.636;11.752;2023-02-28T07:28:27;0.20;0.20
78054;DHT22;67726;45.636;11.752;2023-02-28T07:30:53;0.20;0.20
78054;DHT22;67726;45.636;11.752;2023-02-28T07:33:18;0.20;0.20
78054;DHT22;67726;45.636;11.752;2023-02-28T07:35:44;0.20;0.20
78054;DHT22;67726;45.636;11.752;2023-02-28T07:38:10;0.20;0.20
78054;DHT22;67726;45.636;11.752;2023-02-28T07:40:36;0.20;0.20
78054;DHT22;67726;45.636;11.752;2023-02-28T07:43:02;0.20;0.20
78054;DHT22;67726;45.636;11.752;2023-02-28T07:45:29;0.20;0.20
78054;DHT22;67726;45.636;11.752;2023-02-28T07:47:55;0.20;0.20
78054;DHT22;67726;45.636;11.752;2023-02-28T07:50:21;0.20;0.20
78054;DHT22;67726;45.636;11.752;2023-02-28T07:52:47;0.20;0.20
78054;DHT22;67726;45.636;11.752;2023-02-28T07:55:13;0.20;0.20
78054;DHT22;67726;45.636;11.752;2023-02-28T07:57:40;0.20;0.20
78054;DHT22;67726;45.636;11.752;2023-02-28T08:00:07;0.20;0.20
78054;DHT22;67726;45.636;11.752;2023-02-28T08:02:35;0.20;0.20
78054;DHT22;67726;45.636;11.752;2023-02-28T08:05:00;0.20;0.20
78054;DHT22;67726;45.636;11.752;2023-02-28T08:07:26;0.20;0.20
78054;DHT22;67726;45.636;11.752;2023-02-28T08:09:52;0.20;0.20
78054;DHT22;67726;45.636;11.752;2023-02-28T08:12:18;0.20;0.20
78054;DHT22;67726;45.636;11.752;2023-02-28T08:14:43;0.20;0.20
78054;DHT22;67726;45.636;11.752;2023-02-28T08:17:09;0.20;0.20
78054;DHT22;67726;45.636;11.752;2023-02-28T08:19:35;0.20;0.20
78054;DHT22;67726;45.636;11.752;2023-02-28T08:22:01;0.20;0.20
78054;DHT22;67726;45.636;11.752;2023-02-28T08:24:27;0.20;0.20
78054;DHT22;67726;45.636;11.752;2023-02-28T08:26:52;0.20;0.20
78054;DHT22;67726;45.636;11.752;2023-02-28T08:29:18;0.20;0.20
78054;DHT22;67726;45.636;11.752;2023-02-28T08:31:44;0.20;0.20
78054;DHT22;67726;45.636;11.752;2023-02-28T08:34:14;0.20;0.20
78054;DHT22;67726;45.636;11.752;2023-02-28T08:36:40;0.20;0.20
78054;DHT22;67726;45.636;11.752;2023-02-28T08:39:06;0.20;0.20
78054;DHT22;67726;45.636;11.752;2023-02-28T08:41:33;0.20;0.20
78054;DHT22;67726;45.636;11.752;2023-02-28T08:43:58;0.20;0.20
78054;DHT22;67726;45.636;11.752;2023-02-28T08:46:24;0.20;0.20
78054;DHT22;67726;45.636;11.752;2023-02-28T08:48:54;0.20;0.20
78054;DHT22;67726;45.636;11.752;2023-02-28T08:51:21;0.20;0.20
78054;DHT22;67726;45.636;11.752;2023-02-28T08:53:52;0.20;0.20
78054;DHT22;67726;45.636;11.752;2023-02-28T08:56:19;0.20;0.20
78054;DHT22;67726;45.636;11.752;2023-02-28T08:58:45;0.20;0.20
78054;DHT22;67726;45.636;11.752;2023-02-28T09:01:14;0.20;0.20
78054;DHT22;67726;45.636;11.752;2023-02-28T09:03:41;0.20;0.20
78054;DHT22;67726;45.636;11.752;2023-02-28T09:06:10;0.20;0.20
78054;DHT22;67726;45.636;11.752;2023-02-28T09:08:36;0.20;0.20
78054;DHT22;67726;45.636;11.752;2023-02-28T09:11:02;0.20;0.20
78054;DHT22;67726;45.636;11.752;2023-02-28T09:13:28;0.20;0.20
78054;DHT22;67726;45.636;11.752;2023-02-28T09:15:57;0.20;0.20
78054;DHT22;67726;45.636;11.752;2023-02-28T09:18:24;0.20;0.20
78054;DHT22;67726;45.636;11.752;2023-02-28T09:20:50;0.20;0.20
78054;DHT22;67726;45.636;11.752;2023-02-28T09:23:16;0.20;0.20
78054;DHT22;67726;45.636;11.752;2023-02-28T09:25:52;0.20;0.20
78054;DHT22;67726;45.636;11.752;2023-02-28T09:28:19;0.20;0.20
78054;DHT22;67726;45.636;11.752;2023-02-28T09:30:48;0.20;0.20
78054;DHT22;67726;45.636;11.752;2023-02-28T09:33:15;0.20;0.20
78054;DHT22;67726;45.636;11.752;2023-02-28T09:35:43;0.20;0.20
78054;DHT22;67726;45.636;11.752;2023-02-28T09:38:09;0.20;0.20
78054;DHT22;67726;45.636;11.752;2023-02-28T09:40:37;0.20;0.20
78054;DHT22;67726;45.636;11.752;2023-02-28T09:43:05;0.20;0.20
78054;DHT22;67726;45.636;11.752;2023-02-28T09:45:34;0.20;0.20
78054;DHT22;67726;45.636;11.752;2023-02-28T09:48:09;0.20;0.20
78054;DHT22;67726;45.636;11.752;2023-02-28T09:50:40;0.20;0.20
78054;DHT22;67726;45.636;11.752;2023-02-28T09:53:19;0.20;0.20
78054;DHT22;67726;45.636;11.752;2023-02-28T09:55:51;0.20;0.20
78054;DHT22;67726;45.636;11.752;2023-02-28T09:58:28;0.20;0.20
78054;DHT22;67726;45.636;11.752;2023-02-28T10:06:20;0.20;0.20
78054;DHT22;67726;45.636;11.752;2023-02-28T10:09:02;0.20;0.20
78054;DHT22;67726;45.636;11.752;2023-02-28T10:11:29;0.20;0.20
78054;DHT22;67726;45.636;11.752;2023-02-28T10:14:10;0.20;0.20
78054;DHT22;67726;45.636;11.752;2023-02-28T10:17:01;0.20;0.20
78054;DHT22;67726;45.636;11.752;2023-02-28T10:19:38;0.20;0.20
78054;DHT22;67726;45.636;11.752;2023-02-28T10:22:40;0.20;0.20
78054;DHT22;67726;45.636;11.752;2023-02-28T10:24:58;0.20;0.20
78054;DHT22;67726;45.636;11.752;2023-02-28T10:27:32;0.20;0.20
78054;DHT22;67726;45.636;11.752;2023-02-28T10:30:01;0.20;0.20
78054;DHT22;67726;45.636;11.752;2023-02-28T10:32:35;0.20;0.20
78054;DHT22;67726;45.636;11.752;2023-02-28T10:37:27;0.20;0.20
78054;DHT22;67726;45.636;11.752;2023-02-28T10:39:53;0.20;0.20
78054;DHT22;67726;45.636;11.752;2023-02-28T10:42:26;0.20;0.20
78054;DHT22;67726;45.636;11.752;2023-02-28T10:54:14;0.20;0.20
78054;DHT22;67726;45.636;11.752;2023-02-28T10:56:25;0.20;0.20
78054;DHT22;67726;45.636;11.752;2023-02-28T11:01:44;0.20;0.20
78054;DHT22;67726;45.636;11.752;2023-02-28T11:04:33;0.20;0.20
78054;DHT22;67726;45.636;11.752;2023-02-28T11:07:18;0.20;0.20
78054;DHT22;67726;45.636;11.752;2023-02-28T11:09:48;0.20;0.20
78054;DHT22;67726;45.636;11.752;2023-02-28T11:12:37;0.20;0.20
78054;DHT22;67726;45.636;11.752;2023-02-28T11:15:26;0.20;0.20
78054;DHT22;67726;45.636;11.752;2023-02-28T11:18:02;0.20;0.20
78054;DHT22;67726;45.636;11.752;2023-02-28T11:20:32;0.20;0.20
78054;DHT22;67726;45.636;11.752;2023-02-28T11:23:00;0.20;0.20
78054;DHT22;67726;45.636;11.752;2023-02-28T11:25:32;0.20;0.20
78054;DHT22;67726;45.636;11.752;2023-02-28T11:28:03;0.20;0.20
78054;DHT22;67726;45.636;11.752;2023-02-28T11:32:57;0.20;0.20
78054;DHT22;67726;45.636;11.752;2023-02-28T11:35:27;0.20;0.20
78054;DHT22;67726;45.636;11.752;2023-02-28T11:37:54;0.20;0.20
78054;DHT22;67726;45.636;11.752;2023-02-28T11:43:22;0.20;0.20
78054;DHT22;67726;45.636;11.752;2023-02-28T12:03:03;0.20;0.20
78054;DHT22;67726;45.636;11.752;2023-02-28T12:05:43;0.20;0.20
78054;DHT22;67726;45.636;11.752;2023-02-28T12:08:46;0.20;0.20
78054;DHT22;67726;45.636;11.752;2023-02-28T12:14:14;0.20;0.20
78054;DHT22;67726;45.636;11.752;2023-02-28T12:17:08;0.20;0.20
78054;DHT22;67726;45.636;11.752;2023-02-28T12:28:25;0.20;0.20
78054;DHT22;67726;45.636;11.752;2023-02-28T12:31:00;0.20;0.20
78054;DHT22;67726;45.636;11.752;2023-02-28T12:33:34;0.20;0.20
78054;DHT22;67726;45.636;11.752;2023-02-28T12:36:05;0.20;0.20
78054;DHT22;67726;45.636;11.752;2023-02-28T12:38:40;0.20;0.20
78054;DHT22;67726;45.636;11.752;2023-02-28T12:46:59;0.20;0.20
78054;DHT22;67726;45.636;11.752;2023-02-28T12:52:05;0.20;0.20
78054;DHT22;67726;45.636;11.752;2023-02-28T12:57:09;0.20;0.20
78054;DHT22;67726;45.636;11.752;2023-02-28T13:10:46;0.20;0.20
78054;DHT22;67726;45.636;11.752;2023-02-28T13:13:32;0.20;0.20
78054;DHT22;67726;45.636;11.752;2023-02-28T13:16:06;0.20;0.20
78054;DHT22;67726;45.636;11.752;2023-02-28T13:18:37;0.20;0.20
78054;DHT22;67726;45.636;11.752;2023-02-28T13:21:09;0.20;0.20
78054;DHT22;67726;45.636;11.752;2023-02-28T13:26:11;0.20;0.20
78054;DHT22;67726;45.636;11.752;2023-02-28T13:29:00;0.20;0.20
78054;DHT22;67726;45.636;11.752;2023-02-28T13:31:26;0.20;0.20
78054;DHT22;67726;45.636;11.752;2023-02-28T13:36:29;0.20;0.20
78054;DHT22;67726;45.636;11.752;2023-02-28T13:41:48;0.20;0.20
78054;DHT22;67726;45.636;11.752;2023-02-28T13:44:21;0.20;0.20
78054;DHT22;67726;45.636;11.752;2023-02-28T13:49:30;0.20;0.20
78054;DHT22;67726;45.636;11.752;2023-02-28T13:57:22;0.20;0.20
78054;DHT22;67726;45.636;11.752;2023-02-28T14:03:31;0.20;0.20
78054;DHT22;67726;45.636;11.752;2023-02-28T14:11:35;0.20;0.20
78054;DHT22;67726;45.636;11.752;2023-02-28T14:14:03;0.20;0.20
78054;DHT22;67726;45.636;11.752;2023-02-28T14:16:44;0.20;0.20
78054;DHT22;67726;45.636;11.752;2023-02-28T14:19:22;0.20;0.20
78054;DHT22;67726;45.636;11.752;2023-02-28T14:37:51;0.20;0.20
78054;DHT22;67726;45.636;11.752;2023-02-28T14:40:30;0.20;0.20
78054;DHT22;67726;45.636;11.752;2023-02-28T14:43:02;0.20;0.20
78054;DHT22;67726;45.636;11.752;2023-02-28T14:45:35;0.20;0.20
78054;DHT22;67726;45.636;11.752;2023-02-28T14:48:05;0.20;0.20
78054;DHT22;67726;45.636;11.752;2023-02-28T14:50:37;0.20;0.20
78054;DHT22;67726;45.636;11.752;2023-02-28T14:53:03;0.20;0.20
78054;DHT22;67726;45.636;11.752;2023-02-28T14:55:34;0.20;0.20
78054;DHT22;67726;45.636;11.752;2023-02-28T14:58:02;0.20;0.20
78054;DHT22;67726;45.636;11.752;2023-02-28T15:00:37;0.20;0.20
78054;DHT22;67726;45.636;11.752;2023-02-28T15:03:32;0.20;0.20
78054;DHT22;67726;45.636;11.752;2023-02-28T15:06:00;0.20;0.20
78054;DHT22;67726;45.636;11.752;2023-02-28T15:08:28;0.20;0.20
78054;DHT22;67726;45.636;11.752;2023-02-28T15:13:47;0.20;0.20
78054;DHT22;67726;45.636;11.752;2023-02-28T15:16:17;0.20;0.20
78054;DHT22;67726;45.636;11.752;2023-02-28T15:18:53;0.20;0.20
78054;DHT22;67726;45.636;11.752;2023-02-28T15:21:25;0.20;0.20
78054;DHT22;67726;45.636;11.752;2023-02-28T15:23:55;0.20;0.20
78054;DHT22;67726;45.636;11.752;2023-02-28T15:26:27;0.20;0.20
78054;DHT22;67726;45.636;11.752;2023-02-28T15:29:04;0.20;0.20
78054;DHT22;67726;45.636;11.752;2023-02-28T15:31:35;0.20;0.20
78054;DHT22;67726;45.636;11.752;2023-02-28T15:34:15;0.20;0.20
78054;DHT22;67726;45.636;11.752;2023-02-28T15:36:43;0.20;0.20
78054;DHT22;67726;45.636;11.752;2023-02-28T15:39:27;0.20;0.20
78054;DHT22;67726;45.636;11.752;2023-02-28T15:42:11;0.20;0.20
78054;DHT22;67726;45.636;11.752;2023-02-28T15:44:37;0.20;0.20
78054;DHT22;67726;45.636;11.752;2023-02-28T15:49:37;0.20;0.20
78054;DHT22;67726;45.636;11.752;2023-02-28T15:52:04;0.20;0.20
78054;DHT22;67726;45.636;11.752;2023-02-28T15:54:33;0.20;0.20
78054;DHT22;67726;45.636;11.752;2023-02-28T15:57:24;0.20;0.20
78054;DHT22;67726;45.636;11.752;2023-02-28T15:59:59;0.20;0.20
78054;DHT22;67726;45.636;11.752;2023-02-28T16:02:33;0.20;0.20
78054;DHT22;67726;45.636;11.752;2023-02-28T16:07:34;0.20;0.20
78054;DHT22;67726;45.636;11.752;2023-02-28T16:10:01;0.20;0.20
78054;DHT22;67726;45.636;11.752;2023-02-28T16:12:31;0.20;0.20
78054;DHT22;67726;45.636;11.752;2023-02-28T16:15:06;0.20;0.20
78054;DHT22;67726;45.636;11.752;2023-02-28T16:17:38;0.20;0.20
78054;DHT22;67726;45.636;11.752;2023-02-28T16:20:18;0.20;0.20
78054;DHT22;67726;45.636;11.752;2023-02-28T16:22:44;0.20;0.20
78054;DHT22;67726;45.636;11.752;2023-02-28T16:25:15;0.20;0.20
78054;DHT22;67726;45.636;11.752;2023-02-28T16:27:42;0.20;0.20
78054;DHT22;67726;45.636;11.752;2023-02-28T16:30:19;0.20;0.20
78054;DHT22;67726;45.636;11.752;2023-02-28T16:32:46;0.20;0.20
78054;DHT22;67726;45.636;11.752;2023-02-28T16:35:12;0.20;0.20
78054;DHT22;67726;45.636;11.752;2023-02-28T16:37:39;0.20;0.20
78054;DHT22;67726;45.636;11.752;2023-02-28T16:40:17;0.20;0.20
78054;DHT22;67726;45.636;11.752;2023-02-28T16:42:44;0.20;0.20
78054;DHT22;67726;45.636;11.752;2023-02-28T16:45:28;0.20;0.20
78054;DHT22;67726;45.636;11.752;2023-02-28T16:47:55;0.20;0.20
78054;DHT22;67726;45.636;11.752;2023-02-28T16:50:23;0.20;0.20
78054;DHT22;67726;45.636;11.752;2023-02-28T16:52:49;0.20;0.20
78054;DHT22;67726;45.636;11.752;2023-02-28T16:55:18;0.20;0.20
78054;DHT22;67726;45.636;11.752;2023-02-28T16:57:45;0.20;0.20
78054;DHT22;67726;45.636;11.752;2023-02-28T17:00:13;0.20;0.20
78054;DHT22;67726;45.636;11.752;2023-02-28T17:02:39;0.20;0.20
78054;DHT22;67726;45.636;11.752;2023-02-28T17:05:05;0.20;0.20
78054;DHT22;67726;45.636;11.752;2023-02-28T17:07:32;0.20;0.20
78054;DHT22;67726;45.636;11.752;2023-02-28T17:09:58;0.20;0.20
78054;DHT22;67726;45.636;11.752;2023-02-28T17:12:23;0.20;0.20
78054;DHT22;67726;45.636;11.752;2023-02-28T17:14:49;0.20;0.20
78054;DHT22;67726;45.636;11.752;2023-02-28T17:17:20;0.20;0.20
78054;DHT22;67726;45.636;11.752;2023-02-28T17:19:47;0.20;0.20
78054;DHT22;67726;45.636;11.752;2023-02-28T17:22:12;0.20;0.20
78054;DHT22;67726;45.636;11.752;2023-02-28T17:24:38;0.20;0.20
78054;DHT22;67726;45.636;11.752;2023-02-28T17:27:04;0.20;0.20
78054;DHT22;67726;45.636;11.752;2023-02-28T17:29:30;0.20;0.20
78054;DHT22;67726;45.636;11.752;2023-02-28T17:31:55;0.20;0.20
78054;DHT22;67726;45.636;11.752;2023-02-28T17:34:21;0.20;0.20
78054;DHT22;67726;45.636;11.752;2023-02-28T17:36:49;0.20;0.20
78054;DHT22;67726;45.636;11.752;2023-02-28T17:39:17;0.20;0.20
78054;DHT22;67726;45.636;11.752;2023-02-28T17:41:54;0.20;0.20
78054;DHT22;67726;45.636;11.752;2023-02-28T17:44:23;0.20;0.20
78054;DHT22;67726;45.636;11.752;2023-02-28T17:46:49;0.20;0.20
78054;DHT22;67726;45.636;11.752;2023-02-28T17:49:19;0.20;0.20
78054;DHT22;67726;45.636;11.752;2023-02-28T17:51:45;0.20;0.20
78054;DHT22;67726;45.636;11.752;2023-02-28T17:54:10;0.20;0.20
78054;DHT22;67726;45.636;11.752;2023-02-28T17:56:36;0.20;0.20
78054;DHT22;67726;45.636;11.752;2023-02-28T17:59:02;0.20;0.20
78054;DHT22;67726;45.636;11.752;2023-02-28T18:01:28;0.20;0.20
78054;DHT22;67726;45.636;11.752;2023-02-28T18:03:54;0.20;0.20
78054;DHT22;67726;45.636;11.752;2023-02-28T18:08:47;0.20;0.20
78054;DHT22;67726;45.636;11.752;2023-02-28T18:11:12;0.20;0.20
78054;DHT22;67726;45.636;11.752;2023-02-28T18:13:48;0.20;0.20
78054;DHT22;67726;45.636;11.752;2023-02-28T18:16:15;0.20;0.20
78054;DHT22;67726;45.636;11.752;2023-02-28T18:18:41;0.20;0.20
78054;DHT22;67726;45.636;11.752;2023-02-28T18:21:08;0.20;0.20
78054;DHT22;67726;45.636;11.752;2023-02-28T18:23:35;0.20;0.20
78054;DHT22;67726;45.636;11.752;2023-02-28T18:26:01;0.20;0.20
78054;DHT22;67726;45.636;11.752;2023-02-28T18:28:26;0.20;0.20
78054;DHT22;67726;45.636;11.752;2023-02-28T18:30:52;0.20;0.20
78054;DHT22;67726;45.636;11.752;2023-02-28T18:33:18;0.20;0.20
78054;DHT22;67726;45.636;11.752;2023-02-28T18:35:44;0.20;0.20
78054;DHT22;67726;45.636;11.752;2023-02-28T18:38:13;0.20;0.20
78054;DHT22;67726;45.636;11.752;2023-02-28T18:40:40;0.20;0.20
78054;DHT22;67726;45.636;11.752;2023-02-28T18:43:07;0.20;0.20